Latest Weather Observations for Swanbourne

IDW60901

Issued at 11:55 pm WST Wednesday 16 April 2014 (issued every 10 minutes, with the page automatically refreshed every 10 minutes)

About weather observations | Map of Perth area stations | Latest observations for Perth area | Other Formats
Station Details ID: 009215 Name: SWANBOURNE Lat: -31.96 Lon: 115.76 Height: 40.96 m
Data from the previous 72 hours. | See also: Recent months at Swanbourne
Date/Time
WST
Tmp

°C
App
Tmp
°C
Dew
Point
°C
Rel
Hum
%
Delta-T

°C
Wind Press
QNH
hPa
Press
MSL
hPa
Rain
since
9 am
mm
Dir
 
Spd
km/h
Gust
km/h
Spd
kts
Gust
kts
16/11:30pm 16.4 14.9 11.8 74 2.5 SSE 11 19 6 10 - - 0.0
16/11:00pm 16.6 15.0 11.7 73 2.7 SSE 11 17 6 9 - - 0.0
16/10:30pm 16.8 15.2 11.7 72 2.8 SSE 11 15 6 8 - - 0.0
16/10:00pm 17.0 15.4 11.7 71 2.9 SSE 11 17 6 9 - - 0.0
16/09:30pm 17.0 15.4 11.7 71 2.9 SSE 11 17 6 9 - - 0.0
16/09:00pm 17.3 15.8 12.0 71 2.9 S 11 15 6 8 - - 0.0
16/08:30pm 17.7 16.7 12.2 70 3.0 SSE 9 15 5 8 - - 0.0
16/08:00pm 18.1 16.7 12.1 68 3.3 S 11 19 6 10 - - 0.0
16/07:30pm 18.3 16.9 12.1 67 3.4 S 11 19 6 10 - - 0.0
16/07:00pm 18.6 16.8 12.1 66 3.6 S 13 20 7 11 - - 0.0
16/06:30pm 18.8 16.6 12.1 65 3.7 SSW 15 24 8 13 - - 0.0
16/06:00pm 18.9 17.1 12.2 65 3.7 SSW 13 20 7 11 - - 0.0
16/05:30pm 19.4 17.2 12.2 63 4.0 SSW 15 22 8 12 - - 0.0
16/05:00pm 20.4 18.1 12.9 62 4.3 SSW 17 30 9 16 - - 0.0
16/04:30pm 21.1 18.9 13.3 61 4.5 SSW 17 28 9 15 - - 0.0
16/04:00pm 21.7 19.0 13.6 60 4.7 SSW 20 32 11 17 - - 0.0
16/03:30pm 22.6 20.2 13.7 57 5.2 SW 19 26 10 14 - - 0.0
16/03:00pm 22.9 20.5 14.5 59 5.0 SSW 20 28 11 15 - - 0.0
16/02:30pm 22.7 20.7 15.0 61 4.6 SW 19 28 10 15 - - 0.0
16/02:00pm 22.9 20.9 15.0 61 4.7 SW 19 26 10 14 - - 0.0
16/01:30pm 23.3 21.6 14.8 59 5.1 SW 17 22 9 12 - - 0.0
16/01:00pm 23.0 21.6 14.6 59 5.0 SW 15 20 8 11 - - 0.0
16/12:30pm 23.1 22.3 14.1 57 5.3 SW 11 17 6 9 - - 0.0
16/12:00pm 22.3 22.1 14.7 62 4.5 WSW 9 15 5 8 - - 0.0
16/11:30am 22.4 22.5 14.5 61 4.7 W 7 11 4 6 - - 0.0
16/11:00am 22.4 22.5 14.0 59 4.9 SE 6 9 3 5 - - 0.0
16/10:30am 21.6 21.8 14.3 63 4.3 ESE 6 11 3 6 - - 0.0
16/10:00am 20.4 20.1 14.3 68 3.5 ESE 9 15 5 8 - - 0.0
16/09:30am 20.3 19.6 14.4 69 3.4 E 11 17 6 9 - - 0.0
16/09:00am 19.6 19.0 14.6 73 2.9 E 11 19 6 10 - - 0.0
16/08:30am 19.1 18.7 15.2 78 2.3 E 11 17 6 9 - - 0.0
16/08:00am 17.9 17.6 15.5 86 1.4 E 11 15 6 8 - - 0.0
16/07:30am 17.3 17.9 16.8 97 0.3 E 9 13 5 7 - - 0.0
16/07:00am 16.9 17.4 16.6 98 0.2 ESE 9 11 5 6 - - 0.0
16/06:30am 16.3 17.0 16.0 98 0.2 SE 7 11 4 6 - - 0.0
16/06:00am 16.4 17.0 15.9 97 0.3 ESE 7 9 4 5 - - 0.0
16/05:30am 16.7 17.3 15.9 95 0.5 ESE 7 11 4 6 - - 0.0
16/05:00am 17.0 17.2 15.7 92 0.8 S 9 13 5 7 - - 0.0
16/04:30am 17.8 17.7 16.0 89 1.1 S 11 15 6 8 - - 0.0
16/04:00am 17.8 18.5 16.0 89 1.1 S 7 9 4 5 - - 0.0
16/03:30am 18.1 18.4 15.9 87 1.3 SSE 9 13 5 7 - - 0.0
16/03:00am 18.3 18.0 15.4 83 1.7 S 11 17 6 9 - - 0.0
16/02:30am 18.3 18.5 15.7 85 1.5 SSE 9 15 5 8 - - 0.0
16/02:00am 18.0 17.8 16.7 92 0.8 SSE 13 20 7 11 - - 0.0
16/01:30am 18.5 18.4 17.0 91 0.9 SSE 13 24 7 13 - - 0.0
16/01:00am 19.0 19.1 16.6 86 1.4 SSE 11 19 6 10 - - 0.0
16/12:30am 19.3 19.9 16.7 85 1.6 S 9 13 5 7 - - 0.0
16/12:00am 20.2 20.2 17.2 83 1.8 S 13 20 7 11 - - 0.0
 
Date/Time
WST
Tmp

°C
App
Tmp
°C
Dew
Point
°C
Rel
Hum
%
Delta-T

°C
Wind Press
QNH
hPa
Press
MSL
hPa
Rain
since
9 am
mm
Dir
 
Spd
km/h
Gust
km/h
Spd
kts
Gust
kts
15/11:30pm 19.7 20.4 15.6 77 2.4 SSE 6 6 3 3 - - 0.0
15/11:00pm 19.6 20.2 15.7 78 2.3 S 7 9 4 5 - - 0.0
15/10:30pm 19.2 19.7 15.5 79 2.2 S 7 9 4 5 - - 0.0
15/10:00pm 19.8 20.2 15.4 76 2.6 SSW 7 13 4 7 - - 0.0
15/09:30pm 20.2 20.8 15.4 74 2.8 S 6 11 3 6 - - 0.0
15/09:00pm 19.6 19.9 14.6 73 2.9 S 6 9 3 5 - - 0.0
15/08:30pm 20.0 20.1 14.4 70 3.3 S 7 11 4 6 - - 0.0
15/08:00pm 20.4 20.0 15.2 72 3.1 SSW 11 15 6 8 - - 0.0
15/07:30pm 20.1 20.0 14.9 72 3.1 SSW 9 15 5 8 - - 0.0
15/07:00pm 20.5 20.0 14.8 70 3.3 SSW 11 20 6 11 - - 0.0
15/06:30pm 21.3 20.7 15.6 70 3.4 SW 13 19 7 10 - - 0.0
15/06:00pm 21.3 20.3 14.7 66 3.9 SW 13 20 7 11 - - 0.0
15/05:30pm 21.2 20.4 14.1 64 4.1 SW 11 17 6 9 - - 0.0
15/05:00pm 21.7 19.9 14.4 63 4.3 SW 17 24 9 13 - - 0.0
15/04:30pm 21.8 19.8 13.9 61 4.6 SW 17 24 9 13 - - 0.0
15/04:00pm 23.0 21.0 14.0 57 5.3 SW 17 24 9 13 - - 0.0
15/03:30pm 23.0 21.7 13.8 56 5.4 SW 13 20 7 11 - - 0.0
15/03:00pm 24.4 22.6 14.5 54 5.9 SW 17 22 9 12 - - 0.0
15/02:30pm 23.7 21.8 14.1 55 5.6 SW 17 24 9 13 - - 0.0
15/02:00pm 23.8 21.5 14.2 55 5.7 WSW 19 26 10 14 - - 0.0
15/01:30pm 24.4 22.2 13.3 50 6.5 SW 17 22 9 12 - - 0.0
15/01:00pm 24.1 21.8 14.2 54 5.8 SW 19 28 10 15 - - 0.0
15/12:30pm 23.5 21.3 14.5 57 5.3 SW 19 28 10 15 - - 0.0
15/12:00pm 24.5 22.5 14.9 55 5.7 WSW 19 28 10 15 - - 0.0
15/11:30am 23.9 22.4 14.3 55 5.7 WSW 15 22 8 12 - - 0.0
15/11:00am 24.2 22.9 14.9 56 5.6 WSW 15 22 8 12 - - 0.0
15/10:30am 23.9 23.1 15.1 58 5.3 WSW 13 19 7 10 - - 0.0
15/10:00am 23.6 23.4 14.6 57 5.3 W 9 13 5 7 - - 0.0
15/09:30am 23.3 23.1 14.6 58 5.2 WSW 9 15 5 8 - - 0.0
15/09:00am 22.0 21.9 14.9 64 4.2 WSW 9 13 5 7 - - 0.0
15/08:30am 21.5 20.8 15.3 68 3.7 WSW 13 17 7 9 - - 0.0
15/08:00am 21.4 22.1 15.5 69 3.5 SW 6 7 3 4 - - 0.0
15/07:30am 20.0 20.6 15.8 77 2.5 SW 7 9 4 5 - - 0.0
15/07:00am 19.6 19.9 15.9 79 2.2 SW 9 13 5 7 - - 0.0
15/06:30am 19.9 20.1 16.7 82 1.9 WSW 11 17 6 9 - - 0.0
15/06:00am 18.6 19.5 16.6 88 1.2 SW 7 11 4 6 - - 0.0
15/05:30am 18.4 19.4 16.4 88 1.2 SSW 6 9 3 5 - - 0.0
15/05:00am 18.7 19.5 16.3 86 1.4 SSW 7 11 4 6 - - 0.0
15/04:30am 19.4 20.4 16.4 83 1.8 SSW 6 11 3 6 - - 0.0
15/04:00am 19.8 20.2 16.4 81 2.0 WSW 9 13 5 7 - - 0.0
15/03:30am 20.2 20.9 17.0 82 1.9 WSW 9 15 5 8 - - 0.0
15/03:00am 20.4 20.7 17.0 81 2.1 WSW 11 15 6 8 - - 0.0
15/02:30am 20.0 20.8 17.4 85 1.6 WSW 9 13 5 7 - - 0.0
15/02:00am 19.9 21.5 17.9 88 1.2 WSW 6 9 3 5 - - 0.0
15/01:30am 19.8 21.3 17.6 87 1.4 WSW 6 7 3 4 - - 0.0
15/01:00am 19.9 21.2 17.5 86 1.5 WSW 7 11 4 6 - - 0.0
15/12:30am 19.5 21.1 17.8 90 1.0 SW 6 7 3 4 - - 0.0
15/12:00am 19.2 21.0 17.5 90 1.0 SW 4 6 2 3 - - 0.0
 
Date/Time
WST
Tmp

°C
App
Tmp
°C
Dew
Point
°C
Rel
Hum
%
Delta-T

°C
Wind Press
QNH
hPa
Press
MSL
hPa
Rain
since
9 am
mm
Dir
 
Spd
km/h
Gust
km/h
Spd
kts
Gust
kts
14/11:30pm 19.5 21.8 17.8 90 1.0 SSW 2 4 1 2 - - 0.0
14/11:00pm 19.9 22.0 18.2 90 1.1 SW 4 6 2 3 - - 0.0
14/10:30pm 19.9 22.4 18.2 90 1.1 S 2 4 1 2 - - 0.0
14/10:00pm 19.8 22.3 18.1 90 1.1 SSE 2 6 1 3 - - 0.0
14/09:30pm 19.8 21.4 17.8 88 1.2 S 6 7 3 4 - - 0.0
14/09:00pm 20.1 21.6 17.7 86 1.5 S 6 7 3 4 - - 0.0
14/08:30pm 20.7 21.8 18.1 85 1.6 SSW 9 13 5 7 - - 0.0
14/08:00pm 21.3 22.6 18.5 84 1.8 SSW 9 15 5 8 - - 0.0
14/07:30pm 21.4 22.9 19.0 86 1.5 SSW 9 15 5 8 - - 0.0
14/07:00pm 21.4 23.0 19.1 87 1.5 SW 9 11 5 6 - - 0.0
14/06:30pm 21.8 23.4 19.2 85 1.6 SW 9 13 5 7 - - 0.0
14/06:00pm 22.1 23.9 19.5 85 1.7 SW 9 11 5 6 - - 0.0
14/05:30pm 22.7 24.7 19.1 80 2.3 WSW 7 11 4 6 - - 0.0
14/05:00pm 24.0 26.1 18.9 73 3.2 W 6 11 3 6 - - 0.0
14/04:30pm 24.4 26.3 19.0 72 3.4 WSW 7 11 4 6 - - 0.0
14/04:00pm 24.6 26.1 19.0 71 3.6 WSW 9 13 5 7 - - 0.0
14/03:30pm 25.0 26.5 18.9 69 3.9 WSW 9 13 5 7 - - 0.0
14/03:00pm 25.2 26.2 18.6 67 4.2 WSW 11 15 6 8 - - 0.0
14/02:30pm 25.3 26.4 19.7 71 3.6 WSW 13 17 7 9 - - 0.0
14/02:00pm 25.3 25.9 19.4 70 3.8 WSW 15 19 8 10 - - 0.0
14/01:30pm 25.2 26.0 19.8 72 3.5 W 15 20 8 11 - - 0.0
14/01:00pm 26.4 27.6 20.0 68 4.2 W 13 19 7 10 - - 0.0
14/12:30pm 25.6 26.9 20.2 72 3.5 WNW 13 19 7 10 - - 0.0
14/12:00pm 25.7 27.6 20.5 73 3.4 WNW 11 15 6 8 - - 0.0
14/11:30am 25.3 27.0 20.1 73 3.4 NNW 11 17 6 9 - - 0.0
14/11:00am 25.4 26.6 20.0 72 3.5 NNW 13 19 7 10 - - 0.0
14/10:30am 25.0 26.2 19.8 73 3.4 NNW 13 19 7 10 - - 0.0
14/10:00am 25.1 26.5 19.5 71 3.6 NNW 11 17 6 9 - - 0.0
14/09:30am 24.1 24.4 16.9 64 4.4 NNW 11 17 6 9 - - 0.0
14/09:00am 24.3 24.3 15.2 57 5.5 N 9 17 5 9 - - 0.0
14/08:30am 22.8 23.2 15.4 63 4.4 NNE 7 11 4 6 - - 0.0
14/08:00am 21.1 22.2 15.6 71 3.3 ENE 4 9 2 5 - - 0.0
14/07:30am 19.0 19.1 15.5 80 2.1 ENE 9 15 5 8 - - 0.0
14/07:00am 18.3 18.7 15.2 82 1.8 ENE 7 11 4 6 - - 0.0
14/06:30am 18.5 17.9 14.6 78 2.3 ENE 11 13 6 7 - - 0.0
14/06:00am 18.9 18.3 14.6 76 2.5 ENE 11 13 6 7 - - 0.0
14/05:30am 19.6 19.8 14.6 73 2.9 NE 7 9 4 5 - - 0.0
14/05:00am 19.9 20.2 14.9 73 2.9 NE 7 9 4 5 - - 0.0
14/04:30am 19.4 19.9 15.1 76 2.5 N 6 7 3 4 - - 0.0
14/04:00am 18.9 19.4 15.0 78 2.3 NE 6 9 3 5 - - 0.0
14/03:30am 19.5 20.7 15.8 79 2.2 N 4 6 2 3 - - 0.0
14/03:00am 20.1 21.5 16.5 80 2.2 NNE 4 7 2 4 - - 0.0
14/02:30am 20.1 23.3 19.8 98 0.2 N 2 4 1 2 - - 0.0
14/02:00am 20.8 24.8 20.5 98 0.2 CALM 0 0 0 0 - - 0.0
14/01:30am 19.7 23.1 19.4 98 0.2 CALM 0 0 0 0 - - 0.0
14/01:00am 20.3 24.0 20.0 98 0.2 CALM 0 0 0 0 - - 0.0
14/12:30am 20.3 23.6 20.0 98 0.2 S 2 4 1 2 - - 0.0
14/12:00am 20.5 23.2 20.2 98 0.2 S 6 6 3 3 - - 0.0

Latest Capital City Observations: Canberra | Sydney | Melbourne | Brisbane | Adelaide | Perth | Hobart | Darwin

Other Formats:

Comma delimited format used in spreadsheet applications
http://www.bom.gov.au/fwo/IDW60901/IDW60901.94614.axf

JavaScript Object Notation format (JSON) in row-major order
http://www.bom.gov.au/fwo/IDW60901/IDW60901.94614.json